createdAt,value
2018-09-19T00:00:09.981Z,101045.06
2018-09-19T00:00:21.727Z,101047.30
2018-09-19T00:00:33.487Z,101045.45
2018-09-19T00:00:46.609Z,101047.30
2018-09-19T00:00:58.359Z,101045.45
2018-09-19T00:01:10.122Z,101047.69
2018-09-19T00:01:21.886Z,101044.54
2018-09-19T00:01:33.629Z,101052.52
2018-09-19T00:01:45.382Z,101051.22
2018-09-19T00:01:57.130Z,101046.38
2018-09-19T00:02:08.878Z,101043.23
2018-09-19T00:02:20.626Z,101045.45
2018-09-19T00:02:32.370Z,101044.16
2018-09-19T00:02:44.120Z,101042.84
2018-09-19T00:02:55.885Z,101048.98
2018-09-19T00:03:07.633Z,101048.59
2018-09-19T00:03:19.417Z,101050.30
2018-09-19T00:03:31.281Z,101041.15
2018-09-19T00:03:43.049Z,101047.30
2018-09-19T00:03:54.805Z,101042.84
2018-09-19T00:04:06.567Z,101047.69
2018-09-19T00:04:18.321Z,101042.45
2018-09-19T00:04:30.088Z,101043.77
2018-09-19T00:04:41.863Z,101046.77
2018-09-19T00:04:53.631Z,101048.46
2018-09-19T00:05:05.379Z,101049.77
2018-09-19T00:05:17.247Z,101047.16
2018-09-19T00:05:29.028Z,101046.38
2018-09-19T00:05:40.780Z,101047.16
2018-09-19T00:05:52.534Z,101056.83
2018-09-19T00:06:04.294Z,101050.69
2018-09-19T00:06:16.073Z,101052.52
2018-09-19T00:06:27.817Z,101054.22
2018-09-19T00:06:39.587Z,101051.60
2018-09-19T00:06:51.342Z,101057.75
2018-09-19T00:07:03.092Z,101053.83
2018-09-19T00:07:14.855Z,101055.13
2018-09-19T00:07:26.611Z,101054.61
2018-09-19T00:07:38.359Z,101059.05
2018-09-19T00:07:50.115Z,101057.22
2018-09-19T00:08:01.875Z,101053.30
2018-09-19T00:08:13.627Z,101056.83
2018-09-19T00:08:25.416Z,101058.53
2018-09-19T00:08:37.171Z,101055.52
2018-09-19T00:08:48.943Z,101051.60
2018-09-19T00:09:00.702Z,101056.83
2018-09-19T00:09:12.984Z,101059.45
2018-09-19T00:09:24.731Z,101059.45
2018-09-19T00:09:36.482Z,101059.05
2018-09-19T00:09:48.652Z,101055.52
2018-09-19T00:10:00.403Z,101056.83
2018-09-19T00:10:12.181Z,101055.52
2018-09-19T00:10:23.934Z,101056.83
2018-09-19T00:10:35.706Z,101050.69
2018-09-19T00:10:47.465Z,101052.91
2018-09-19T00:10:59.271Z,101055.91
2018-09-19T00:11:11.163Z,101055.13
2018-09-19T00:11:22.925Z,101059.45
2018-09-19T00:11:34.674Z,101050.30
2018-09-19T00:11:46.429Z,101054.61
2018-09-19T00:11:58.219Z,101053.30
2018-09-19T00:12:09.978Z,101048.59
2018-09-19T00:12:21.721Z,101054.22
2018-09-19T00:12:33.499Z,101054.22
2018-09-19T00:12:45.255Z,101054.61
2018-09-19T00:12:57.032Z,101056.44
2018-09-19T00:13:08.785Z,101059.05
2018-09-19T00:13:20.523Z,101051.99
2018-09-19T00:13:32.291Z,101051.60
2018-09-19T00:13:44.054Z,101053.69
2018-09-19T00:13:55.820Z,101055.00
2018-09-19T00:14:07.686Z,101055.52
2018-09-19T00:14:19.446Z,101053.44
2018-09-19T00:14:31.201Z,101058.14
2018-09-19T00:14:42.953Z,101056.44
2018-09-19T00:14:54.711Z,101053.30
2018-09-19T00:15:06.487Z,101053.44
2018-09-19T00:15:18.239Z,101052.52
2018-09-19T00:15:30.063Z,101054.22
2018-09-19T00:15:41.801Z,101050.30
2018-09-19T00:15:53.579Z,101059.05
2018-09-19T00:16:05.326Z,101058.92
2018-09-19T00:16:17.080Z,101051.99
2018-09-19T00:16:28.822Z,101055.91
2018-09-19T00:16:40.584Z,101055.00
2018-09-19T00:16:52.341Z,101060.75
2018-09-19T00:17:04.105Z,101058.14
2018-09-19T00:17:15.865Z,101054.61
2018-09-19T00:17:27.620Z,101057.22
2018-09-19T00:17:39.381Z,101060.75
2018-09-19T00:17:51.136Z,101054.75
2018-09-19T00:18:02.878Z,101058.14
2018-09-19T00:18:14.674Z,101060.75
2018-09-19T00:18:26.477Z,101059.05
2018-09-19T00:18:38.203Z,101059.05
2018-09-19T00:18:49.984Z,101059.97
2018-09-19T00:19:01.754Z,101060.75
2018-09-19T00:19:13.535Z,101057.75
2018-09-19T00:19:25.276Z,101060.36
2018-09-19T00:19:37.044Z,101061.67
2018-09-19T00:19:48.823Z,101059.05
2018-09-19T00:20:00.599Z,101063.36
2018-09-19T00:20:12.431Z,101063.36
2018-09-19T00:20:24.484Z,101062.06
2018-09-19T00:20:36.246Z,101060.75
2018-09-19T00:20:48.017Z,101059.83
2018-09-19T00:20:59.787Z,101062.98
2018-09-19T00:21:11.538Z,101061.67
2018-09-19T00:21:23.278Z,101062.45
2018-09-19T00:21:35.026Z,101064.67
2018-09-19T00:21:46.788Z,101065.59
2018-09-19T00:21:58.548Z,101059.45
2018-09-19T00:22:10.310Z,101063.36
2018-09-19T00:22:22.058Z,101065.06
2018-09-19T00:22:33.811Z,101068.20
2018-09-19T00:22:45.555Z,101062.98
2018-09-19T00:22:57.315Z,101062.06
2018-09-19T00:23:09.100Z,101064.28
2018-09-19T00:23:20.882Z,101064.42
2018-09-19T00:23:32.682Z,101066.90
2018-09-19T00:23:44.459Z,101064.28
2018-09-19T00:23:56.218Z,101064.28
2018-09-19T00:24:08.047Z,101063.76
2018-09-19T00:24:19.800Z,101067.29
2018-09-19T00:24:31.550Z,101065.98
2018-09-19T00:24:43.340Z,101062.45
2018-09-19T00:24:55.089Z,101063.76
2018-09-19T00:25:06.852Z,101063.36
2018-09-19T00:25:18.592Z,101059.83
2018-09-19T00:25:30.349Z,101061.92
2018-09-19T00:25:42.357Z,101069.91
2018-09-19T00:25:54.143Z,101060.75
2018-09-19T00:26:05.970Z,101063.76
2018-09-19T00:26:17.682Z,101064.28
2018-09-19T00:26:29.447Z,101062.59
2018-09-19T00:26:41.202Z,101062.98
2018-09-19T00:26:52.970Z,101068.20
2018-09-19T00:27:04.729Z,101064.67
2018-09-19T00:27:16.522Z,101062.59
2018-09-19T00:27:28.249Z,101059.45
2018-09-19T00:27:40.003Z,101061.67
2018-09-19T00:27:51.771Z,101059.45
2018-09-19T00:28:03.567Z,101062.59
2018-09-19T00:28:15.315Z,101058.53
2018-09-19T00:28:27.092Z,101059.45
2018-09-19T00:28:38.865Z,101061.67
2018-09-19T00:28:50.633Z,101062.06
2018-09-19T00:29:02.441Z,101058.92
2018-09-19T00:29:14.172Z,101059.45
2018-09-19T00:29:25.940Z,101055.91
2018-09-19T00:29:37.925Z,101058.92
2018-09-19T00:29:49.689Z,101055.52
2018-09-19T00:30:01.448Z,101058.53
2018-09-19T00:30:13.206Z,101057.22
2018-09-19T00:30:24.960Z,101056.30
2018-09-19T00:30:36.726Z,101059.45
2018-09-19T00:30:48.696Z,101055.00
2018-09-19T00:31:00.501Z,101057.61
2018-09-19T00:31:12.286Z,101059.83
2018-09-19T00:31:24.028Z,101062.45
2018-09-19T00:31:35.835Z,101059.45
2018-09-19T00:31:47.608Z,101054.61
2018-09-19T00:31:59.363Z,101063.36
2018-09-19T00:32:11.118Z,101058.53
2018-09-19T00:32:22.875Z,101060.75
2018-09-19T00:32:34.612Z,101054.22
2018-09-19T00:32:46.395Z,101059.45
2018-09-19T00:32:58.171Z,101061.14
2018-09-19T00:33:09.933Z,101059.83
2018-09-19T00:33:22.044Z,101057.22
2018-09-19T00:33:33.803Z,101058.53
2018-09-19T00:33:45.571Z,101058.53
2018-09-19T00:33:57.313Z,101058.14
2018-09-19T00:34:09.080Z,101063.36
2018-09-19T00:34:20.832Z,101064.67
2018-09-19T00:34:32.579Z,101058.14
2018-09-19T00:34:45.031Z,101060.75
2018-09-19T00:34:56.897Z,101062.45
2018-09-19T00:35:08.653Z,101064.67
2018-09-19T00:35:20.523Z,101061.14
2018-09-19T00:35:32.280Z,101062.06
2018-09-19T00:35:44.072Z,101065.98
2018-09-19T00:35:55.823Z,101064.67
2018-09-19T00:36:07.582Z,101065.59
2018-09-19T00:36:19.352Z,101071.59
2018-09-19T00:36:31.124Z,101067.68
2018-09-19T00:36:42.883Z,101065.98
2018-09-19T00:36:54.658Z,101062.84
2018-09-19T00:37:06.449Z,101069.91
2018-09-19T00:37:18.207Z,101072.13
2018-09-19T00:37:29.949Z,101069.91
2018-09-19T00:37:41.707Z,101068.06
2018-09-19T00:37:53.450Z,101067.68
2018-09-19T00:38:05.209Z,101064.14
2018-09-19T00:38:17.000Z,101070.30
2018-09-19T00:38:28.767Z,101075.13
2018-09-19T00:38:40.935Z,101075.13
2018-09-19T00:38:53.492Z,101069.91
2018-09-19T00:39:05.388Z,101074.22
2018-09-19T00:39:17.125Z,101068.06
2018-09-19T00:39:28.894Z,101066.76
2018-09-19T00:39:40.649Z,101066.37
2018-09-19T00:39:52.402Z,101071.21
2018-09-19T00:40:04.184Z,101066.37
2018-09-19T00:40:15.934Z,101073.83
2018-09-19T00:40:27.764Z,101071.59
2018-09-19T00:40:39.476Z,101072.52
2018-09-19T00:40:51.243Z,101069.52
2018-09-19T00:41:03.007Z,101067.68
2018-09-19T00:41:14.910Z,101069.91
2018-09-19T00:41:26.713Z,101068.98
2018-09-19T00:41:38.577Z,101073.44
2018-09-19T00:41:50.331Z,101071.21
2018-09-19T00:42:02.194Z,101067.68
2018-09-19T00:42:13.962Z,101065.84
2018-09-19T00:42:25.715Z,101068.06
2018-09-19T00:42:37.543Z,101071.21
2018-09-19T00:42:49.230Z,101073.83
2018-09-19T00:43:01.163Z,101073.83
2018-09-19T00:43:12.941Z,101068.20
2018-09-19T00:43:24.695Z,101077.36
2018-09-19T00:43:36.461Z,101069.38
2018-09-19T00:43:48.221Z,101071.21
2018-09-19T00:43:59.998Z,101073.83
2018-09-19T00:44:11.904Z,101071.21
2018-09-19T00:44:23.760Z,101071.21
2018-09-19T00:44:35.518Z,101075.13
2018-09-19T00:44:47.270Z,101075.13
2018-09-19T00:44:59.019Z,101072.52
2018-09-19T00:45:10.805Z,101071.21
2018-09-19T00:45:22.574Z,101072.52
2018-09-19T00:45:34.485Z,101072.52
2018-09-19T00:45:46.255Z,101075.52
2018-09-19T00:45:58.030Z,101071.21
2018-09-19T00:46:10.060Z,101073.83
2018-09-19T00:46:21.841Z,101071.21
2018-09-19T00:46:33.587Z,101067.29
2018-09-19T00:46:45.365Z,101076.05
2018-09-19T00:46:57.118Z,101072.52
2018-09-19T00:47:08.861Z,101067.29
2018-09-19T00:47:20.672Z,101072.52
2018-09-19T00:47:32.434Z,101065.98
2018-09-19T00:47:44.219Z,101070.82
2018-09-19T00:47:55.970Z,101071.59
2018-09-19T00:48:08.044Z,101070.30
2018-09-19T00:48:19.848Z,101069.52
2018-09-19T00:48:31.597Z,101068.59
2018-09-19T00:48:43.368Z,101071.21
2018-09-19T00:48:55.127Z,101065.98
2018-09-19T00:49:06.897Z,101070.68
2018-09-19T00:49:18.686Z,101070.30
2018-09-19T00:49:30.463Z,101066.90
2018-09-19T00:49:42.227Z,101073.83
2018-09-19T00:49:53.975Z,101063.76
2018-09-19T00:50:05.743Z,101065.45
2018-09-19T00:50:17.605Z,101068.20
2018-09-19T00:50:29.377Z,101068.59
2018-09-19T00:50:41.141Z,101063.76
2018-09-19T00:50:52.939Z,101067.68
2018-09-19T00:51:04.698Z,101069.38
2018-09-19T00:51:16.492Z,101067.68
2018-09-19T00:51:28.259Z,101077.36
2018-09-19T00:51:40.015Z,101065.98
2018-09-19T00:51:51.758Z,101073.83
2018-09-19T00:52:03.516Z,101069.91
2018-09-19T00:52:15.311Z,101067.29
2018-09-19T00:52:27.057Z,101071.59
2018-09-19T00:52:38.815Z,101071.21
2018-09-19T00:52:50.562Z,101073.30
2018-09-19T00:53:02.312Z,101071.21
2018-09-19T00:53:14.083Z,101069.38
2018-09-19T00:53:25.839Z,101071.59
2018-09-19T00:53:37.584Z,101074.22
2018-09-19T00:53:49.340Z,101071.98
2018-09-19T00:54:01.125Z,101077.36
2018-09-19T00:54:12.900Z,101074.60
2018-09-19T00:54:25.195Z,101069.91
2018-09-19T00:54:36.945Z,101072.52
2018-09-19T00:54:48.740Z,101076.83
2018-09-19T00:55:00.511Z,101077.36
2018-09-19T00:55:12.259Z,101078.13
2018-09-19T00:55:24.006Z,101079.05
2018-09-19T00:55:35.788Z,101078.52
2018-09-19T00:55:47.530Z,101081.14
2018-09-19T00:55:59.347Z,101078.52
2018-09-19T00:56:11.077Z,101077.36
2018-09-19T00:56:22.844Z,101074.99
2018-09-19T00:56:34.738Z,101080.36
2018-09-19T00:56:46.490Z,101085.98
2018-09-19T00:56:58.249Z,101081.28
2018-09-19T00:57:09.998Z,101076.83
2018-09-19T00:57:21.743Z,101085.20
2018-09-19T00:57:33.490Z,101082.05
2018-09-19T00:57:45.445Z,101075.91
2018-09-19T00:57:57.187Z,101082.05
2018-09-19T00:58:08.961Z,101076.44
2018-09-19T00:58:20.720Z,101080.36
2018-09-19T00:58:32.490Z,101080.36
2018-09-19T00:58:44.379Z,101082.05
2018-09-19T00:58:56.155Z,101085.59
2018-09-19T00:59:07.922Z,101083.89
2018-09-19T00:59:19.684Z,101082.58
2018-09-19T00:59:31.430Z,101085.59
2018-09-19T00:59:43.187Z,101076.83
2018-09-19T00:59:55.275Z,101085.20
2018-09-19T01:00:07.173Z,101083.36
2018-09-19T01:00:18.978Z,101083.89
2018-09-19T01:00:30.700Z,101083.36
2018-09-19T01:00:42.447Z,101084.28
2018-09-19T01:00:54.409Z,101080.36
2018-09-19T01:01:06.166Z,101081.28
2018-09-19T01:01:17.910Z,101086.89
2018-09-19T01:01:29.709Z,101084.67
2018-09-19T01:01:41.581Z,101082.58
2018-09-19T01:01:53.326Z,101081.66
2018-09-19T01:02:05.074Z,101085.06
2018-09-19T01:02:16.824Z,101088.20
2018-09-19T01:02:28.791Z,101089.51
2018-09-19T01:02:40.768Z,101089.51
2018-09-19T01:02:52.543Z,101089.90
2018-09-19T01:03:04.310Z,101085.06
2018-09-19T01:03:16.070Z,101088.59
2018-09-19T01:03:28.048Z,101089.90
2018-09-19T01:03:39.863Z,101084.67
2018-09-19T01:03:51.811Z,101088.20
2018-09-19T01:04:03.587Z,101086.89
2018-09-19T01:04:15.330Z,101085.45
2018-09-19T01:04:27.099Z,101087.28
2018-09-19T01:04:38.859Z,101088.20
2018-09-19T01:04:50.715Z,101092.52
2018-09-19T01:05:02.543Z,101092.13
2018-09-19T01:05:14.337Z,101088.59
2018-09-19T01:05:26.832Z,101087.67
2018-09-19T01:05:38.698Z,101093.30
2018-09-19T01:05:50.452Z,101090.67
2018-09-19T01:06:02.208Z,101085.98
2018-09-19T01:06:13.972Z,101090.29
2018-09-19T01:06:25.732Z,101088.06
2018-09-19T01:06:37.527Z,101088.06
2018-09-19T01:06:49.314Z,101088.59
2018-09-19T01:07:01.161Z,101088.98
2018-09-19T01:07:12.916Z,101089.90
2018-09-19T01:07:24.662Z,101092.52
2018-09-19T01:07:36.415Z,101092.38
2018-09-19T01:07:48.171Z,101087.67
2018-09-19T01:07:59.934Z,101091.20
2018-09-19T01:08:11.685Z,101093.43
2018-09-19T01:08:23.451Z,101089.90
2018-09-19T01:08:35.239Z,101092.90
2018-09-19T01:08:46.990Z,101091.59
2018-09-19T01:08:58.909Z,101092.52
2018-09-19T01:09:10.692Z,101094.73
2018-09-19T01:09:22.450Z,101096.44
2018-09-19T01:09:34.216Z,101091.73
2018-09-19T01:09:45.973Z,101094.73
2018-09-19T01:09:57.731Z,101091.20
2018-09-19T01:10:09.483Z,101092.52
2018-09-19T01:10:21.244Z,101088.98
2018-09-19T01:10:33.036Z,101095.13
2018-09-19T01:10:44.851Z,101093.43
2018-09-19T01:10:56.603Z,101096.83
2018-09-19T01:11:08.346Z,101094.73
2018-09-19T01:11:20.115Z,101088.98
2018-09-19T01:11:31.866Z,101091.98
2018-09-19T01:11:43.615Z,101088.20
2018-09-19T01:11:55.395Z,101088.59
2018-09-19T01:12:07.147Z,101093.43
2018-09-19T01:12:18.896Z,101088.06
2018-09-19T01:12:30.650Z,101089.37
2018-09-19T01:12:42.414Z,101088.59
2018-09-19T01:12:54.171Z,101087.67
2018-09-19T01:13:05.931Z,101089.90
2018-09-19T01:13:17.759Z,101088.59
2018-09-19T01:13:29.528Z,101091.59
2018-09-19T01:13:41.279Z,101084.67
2018-09-19T01:13:53.034Z,101088.59
2018-09-19T01:14:04.781Z,101086.22
2018-09-19T01:14:16.530Z,101091.20
2018-09-19T01:14:28.275Z,101094.20
2018-09-19T01:14:40.033Z,101094.73
2018-09-19T01:14:51.771Z,101090.29
2018-09-19T01:15:03.509Z,101087.28
2018-09-19T01:15:15.268Z,101087.67
2018-09-19T01:15:27.047Z,101085.45
2018-09-19T01:15:38.806Z,101088.98
2018-09-19T01:15:50.549Z,101083.75
2018-09-19T01:16:02.320Z,101086.76
2018-09-19T01:16:14.063Z,101089.12
2018-09-19T01:16:25.875Z,101089.90
2018-09-19T01:16:37.599Z,101092.52
2018-09-19T01:16:49.359Z,101092.90
2018-09-19T01:17:01.150Z,101085.45
2018-09-19T01:17:12.909Z,101088.06
2018-09-19T01:17:24.667Z,101090.67
2018-09-19T01:17:36.432Z,101097.35
2018-09-19T01:17:48.183Z,101091.59
2018-09-19T01:17:59.931Z,101092.52
2018-09-19T01:18:11.681Z,101091.59
2018-09-19T01:18:23.433Z,101091.98
2018-09-19T01:18:35.199Z,101094.59
2018-09-19T01:18:46.952Z,101092.90
2018-09-19T01:18:58.698Z,101095.52
2018-09-19T01:19:10.442Z,101097.74
2018-09-19T01:19:22.189Z,101093.30
2018-09-19T01:19:33.944Z,101096.44
2018-09-19T01:19:45.711Z,101090.67
2018-09-19T01:19:57.462Z,101093.82
2018-09-19T01:20:09.215Z,101092.52
2018-09-19T01:20:20.972Z,101092.38
2018-09-19T01:20:32.727Z,101092.90
2018-09-19T01:20:44.497Z,101093.82
2018-09-19T01:20:56.309Z,101093.82
2018-09-19T01:21:08.059Z,101094.73
2018-09-19T01:21:19.920Z,101095.52
2018-09-19T01:21:31.671Z,101096.83
2018-09-19T01:21:43.416Z,101097.35
2018-09-19T01:21:55.175Z,101094.73
2018-09-19T01:22:06.957Z,101092.13
2018-09-19T01:22:18.698Z,101094.34
2018-09-19T01:22:30.448Z,101095.13
2018-09-19T01:22:42.198Z,101092.90
2018-09-19T01:22:53.964Z,101096.05
2018-09-19T01:23:05.776Z,101089.90
2018-09-19T01:23:17.523Z,101096.97
2018-09-19T01:23:29.271Z,101083.75
2018-09-19T01:23:41.028Z,101097.35
2018-09-19T01:23:52.831Z,101091.20
2018-09-19T01:24:04.580Z,101093.43
2018-09-19T01:24:16.352Z,101094.20
2018-09-19T01:24:28.132Z,101095.66
2018-09-19T01:24:39.863Z,101098.27
2018-09-19T01:24:51.659Z,101094.73
2018-09-19T01:25:03.404Z,101091.20
2018-09-19T01:25:15.155Z,101099.44
2018-09-19T01:25:26.896Z,101093.43
2018-09-19T01:25:38.652Z,101093.82
2018-09-19T01:25:50.408Z,101092.13
2018-09-19T01:26:02.158Z,101098.27
2018-09-19T01:26:13.918Z,101085.06
2018-09-19T01:26:25.679Z,101093.82
2018-09-19T01:26:37.428Z,101099.97
2018-09-19T01:26:49.185Z,101096.83
2018-09-19T01:27:00.955Z,101103.89
2018-09-19T01:27:12.695Z,101098.13
2018-09-19T01:27:24.444Z,101101.27
2018-09-19T01:27:36.182Z,101099.58
2018-09-19T01:27:47.936Z,101098.27
2018-09-19T01:27:59.691Z,101097.35
2018-09-19T01:28:11.440Z,101094.73
2018-09-19T01:28:23.188Z,101096.05
2018-09-19T01:28:34.933Z,101098.13
2018-09-19T01:28:46.688Z,101104.28
2018-09-19T01:28:58.440Z,101100.36
2018-09-19T01:29:10.191Z,101095.52
2018-09-19T01:29:21.939Z,101099.97
2018-09-19T01:29:33.679Z,101096.44
2018-09-19T01:29:45.442Z,101100.36
2018-09-19T01:29:57.191Z,101102.05
2018-09-19T01:30:08.953Z,101096.44
2018-09-19T01:30:20.701Z,101098.13
2018-09-19T01:30:32.445Z,101103.75
2018-09-19T01:30:44.195Z,101102.58
2018-09-19T01:30:55.982Z,101101.66
2018-09-19T01:31:07.863Z,101098.13
2018-09-19T01:31:19.619Z,101101.13
2018-09-19T01:31:31.382Z,101100.74
2018-09-19T01:31:43.147Z,101105.58
2018-09-19T01:31:55.255Z,101104.66
2018-09-19T01:32:07.040Z,101099.05
2018-09-19T01:32:18.794Z,101097.21
2018-09-19T01:32:30.556Z,101107.67
2018-09-19T01:32:42.299Z,101102.97
2018-09-19T01:32:54.036Z,101103.89
2018-09-19T01:33:05.800Z,101108.20
2018-09-19T01:33:17.564Z,101102.44
2018-09-19T01:33:29.322Z,101106.50
2018-09-19T01:33:41.084Z,101105.97
2018-09-19T01:33:52.832Z,101102.97
2018-09-19T01:34:04.587Z,101103.75
2018-09-19T01:34:16.338Z,101106.11
2018-09-19T01:34:28.096Z,101102.44
2018-09-19T01:34:39.852Z,101106.75
2018-09-19T01:34:51.609Z,101102.05
2018-09-19T01:35:03.368Z,101107.67
2018-09-19T01:35:15.148Z,101106.36
2018-09-19T01:35:26.893Z,101105.58
2018-09-19T01:35:38.675Z,101102.05
2018-09-19T01:35:50.431Z,101100.74
2018-09-19T01:36:02.213Z,101104.66
2018-09-19T01:36:13.975Z,101104.66
2018-09-19T01:36:25.735Z,101104.66
2018-09-19T01:36:37.499Z,101101.66
2018-09-19T01:36:49.237Z,101105.97
2018-09-19T01:37:00.983Z,101108.20
2018-09-19T01:37:12.764Z,101104.66
2018-09-19T01:37:24.510Z,101105.97
2018-09-19T01:37:36.251Z,101099.83
2018-09-19T01:37:48.014Z,101106.36
2018-09-19T01:37:59.766Z,101102.05
2018-09-19T01:38:11.514Z,101105.05
2018-09-19T01:38:23.289Z,101105.97
2018-09-19T01:38:35.054Z,101103.36
2018-09-19T01:38:46.802Z,101104.66
2018-09-19T01:38:58.572Z,101104.66
2018-09-19T01:39:10.379Z,101103.36
2018-09-19T01:39:22.223Z,101100.74
2018-09-19T01:39:33.986Z,101102.97
2018-09-19T01:39:45.767Z,101110.28
2018-09-19T01:39:57.530Z,101110.03
2018-09-19T01:40:09.300Z,101105.58
2018-09-19T01:40:21.062Z,101104.28
2018-09-19T01:40:32.811Z,101107.28
2018-09-19T01:40:44.565Z,101106.50
2018-09-19T01:40:56.323Z,101108.59
2018-09-19T01:41:08.075Z,101106.89
2018-09-19T01:41:19.867Z,101112.12
2018-09-19T01:41:31.649Z,101109.89
2018-09-19T01:41:43.390Z,101111.20
2018-09-19T01:41:55.160Z,101110.03
2018-09-19T01:42:06.911Z,101107.28
2018-09-19T01:42:18.704Z,101108.59
2018-09-19T01:42:30.451Z,101109.89
2018-09-19T01:42:42.203Z,101107.28
2018-09-19T01:42:53.948Z,101111.20
2018-09-19T01:43:05.712Z,101110.42
2018-09-19T01:43:17.469Z,101108.97
2018-09-19T01:43:29.219Z,101114.73
2018-09-19T01:43:40.982Z,101110.81
2018-09-19T01:43:52.733Z,101109.11
2018-09-19T01:44:04.505Z,101112.12
2018-09-19T01:44:16.334Z,101114.73
2018-09-19T01:44:28.020Z,101111.73
2018-09-19T01:44:39.758Z,101107.81
2018-09-19T01:44:51.531Z,101106.89
2018-09-19T01:45:03.283Z,101106.89
2018-09-19T01:45:15.068Z,101108.59
2018-09-19T01:45:26.807Z,101103.36
2018-09-19T01:45:38.552Z,101109.50
2018-09-19T01:45:50.299Z,101110.81
2018-09-19T01:46:02.061Z,101108.20
2018-09-19T01:46:13.850Z,101110.81
2018-09-19T01:46:25.603Z,101109.89
2018-09-19T01:46:37.360Z,101105.05
2018-09-19T01:46:49.112Z,101106.36
2018-09-19T01:47:00.894Z,101109.11
2018-09-19T01:47:12.642Z,101112.51
2018-09-19T01:47:24.406Z,101116.04
2018-09-19T01:47:36.160Z,101108.97
2018-09-19T01:47:47.908Z,101108.59
2018-09-19T01:47:59.659Z,101109.89
2018-09-19T01:48:11.416Z,101111.98
2018-09-19T01:48:23.195Z,101106.89
2018-09-19T01:48:34.960Z,101111.73
2018-09-19T01:48:46.722Z,101107.28
2018-09-19T01:48:58.528Z,101112.12
2018-09-19T01:49:10.274Z,101112.12
2018-09-19T01:49:22.065Z,101112.51
2018-09-19T01:49:33.811Z,101113.42
2018-09-19T01:49:45.567Z,101116.43
2018-09-19T01:49:57.341Z,101112.51
2018-09-19T01:50:09.099Z,101118.66
2018-09-19T01:50:20.848Z,101120.35
2018-09-19T01:50:32.597Z,101112.12
2018-09-19T01:50:44.354Z,101116.43
2018-09-19T01:50:56.103Z,101113.42
2018-09-19T01:51:07.858Z,101115.13
2018-09-19T01:51:19.621Z,101115.13
2018-09-19T01:51:31.420Z,101113.42
2018-09-19T01:51:43.154Z,101107.28
2018-09-19T01:51:55.383Z,101114.73
2018-09-19T01:52:07.140Z,101113.81
2018-09-19T01:52:18.905Z,101115.51
2018-09-19T01:52:30.695Z,101112.12
2018-09-19T01:52:42.448Z,101114.34
2018-09-19T01:52:54.199Z,101111.59
2018-09-19T01:53:05.963Z,101113.81
2018-09-19T01:53:17.740Z,101114.20
2018-09-19T01:53:29.486Z,101121.66
2018-09-19T01:53:41.245Z,101117.34
2018-09-19T01:53:53.015Z,101115.13
2018-09-19T01:54:04.763Z,101116.43
2018-09-19T01:54:16.526Z,101115.51
2018-09-19T01:54:28.321Z,101116.04
2018-09-19T01:54:40.046Z,101117.34
2018-09-19T01:54:51.807Z,101116.04
2018-09-19T01:55:03.553Z,101125.19
2018-09-19T01:55:15.293Z,101116.95
2018-09-19T01:55:27.038Z,101118.27
2018-09-19T01:55:38.793Z,101116.95
2018-09-19T01:55:50.556Z,101127.95
2018-09-19T01:56:02.495Z,101119.58
2018-09-19T01:56:14.250Z,101120.35
2018-09-19T01:56:26.009Z,101118.66
2018-09-19T01:56:37.782Z,101120.10
2018-09-19T01:56:49.537Z,101119.58
2018-09-19T01:57:01.374Z,101117.73
2018-09-19T01:57:13.126Z,101124.80
2018-09-19T01:57:24.895Z,101116.95
2018-09-19T01:57:36.661Z,101117.34
2018-09-19T01:57:48.437Z,101126.50
2018-09-19T01:58:00.193Z,101118.13
2018-09-19T01:58:11.947Z,101122.58
2018-09-19T01:58:23.704Z,101129.11
2018-09-19T01:58:35.481Z,101124.27
2018-09-19T01:58:47.235Z,101124.80
2018-09-19T01:58:58.991Z,101128.19
2018-09-19T01:59:10.743Z,101126.89
2018-09-19T01:59:22.678Z,101123.88
2018-09-19T01:59:34.444Z,101125.19
2018-09-19T01:59:46.202Z,101129.11
2018-09-19T01:59:57.951Z,101127.41
2018-09-19T02:00:09.743Z,101122.19
2018-09-19T02:00:21.520Z,101126.50
2018-09-19T02:00:33.290Z,101126.11
2018-09-19T02:00:45.038Z,101125.19
2018-09-19T02:00:56.832Z,101127.41
2018-09-19T02:01:08.597Z,101125.58
2018-09-19T02:01:20.340Z,101128.33
2018-09-19T02:01:32.086Z,101124.27
2018-09-19T02:01:43.829Z,101129.50
2018-09-19T02:01:55.582Z,101126.50
2018-09-19T02:02:07.348Z,101133.42
2018-09-19T02:02:19.094Z,101130.42
2018-09-19T02:02:30.850Z,101127.41
2018-09-19T02:02:42.738Z,101127.80
2018-09-19T02:02:54.410Z,101133.95
2018-09-19T02:03:06.179Z,101131.72
2018-09-19T02:03:17.921Z,101128.58
2018-09-19T02:03:29.675Z,101123.88
2018-09-19T02:03:41.437Z,101125.58
2018-09-19T02:03:53.228Z,101125.19
2018-09-19T02:04:04.983Z,101124.27
2018-09-19T02:04:16.871Z,101124.80
2018-09-19T02:04:28.623Z,101126.50
2018-09-19T02:04:40.375Z,101129.50
2018-09-19T02:04:52.129Z,101126.89
2018-09-19T02:05:03.866Z,101133.03
2018-09-19T02:05:15.605Z,101127.41
2018-09-19T02:05:27.389Z,101124.80
2018-09-19T02:05:39.134Z,101130.42
2018-09-19T02:05:50.884Z,101125.19
2018-09-19T02:06:02.660Z,101133.03
2018-09-19T02:06:14.412Z,101129.50
2018-09-19T02:06:26.192Z,101133.42
2018-09-19T02:06:37.956Z,101132.11
2018-09-19T02:06:49.710Z,101136.95
2018-09-19T02:07:01.466Z,101132.64
2018-09-19T02:07:13.221Z,101129.50
2018-09-19T02:07:25.009Z,101135.12
2018-09-19T02:07:37.063Z,101132.50
2018-09-19T02:07:48.848Z,101128.58
2018-09-19T02:08:00.598Z,101129.89
2018-09-19T02:08:12.358Z,101126.89
2018-09-19T02:08:24.140Z,101129.11
2018-09-19T02:08:35.882Z,101134.73
2018-09-19T02:08:47.630Z,101133.42
2018-09-19T02:08:59.376Z,101135.64
2018-09-19T02:09:12.710Z,101125.58
2018-09-19T02:09:24.467Z,101126.11
2018-09-19T02:09:36.231Z,101134.73
2018-09-19T02:09:47.978Z,101136.56
2018-09-19T02:09:59.741Z,101126.11
2018-09-19T02:10:11.490Z,101136.56
2018-09-19T02:10:23.267Z,101134.34
2018-09-19T02:10:35.009Z,101138.79
2018-09-19T02:10:46.762Z,101132.11
2018-09-19T02:10:58.567Z,101136.56
2018-09-19T02:11:10.322Z,101132.64
2018-09-19T02:11:22.069Z,101129.64
2018-09-19T02:11:33.821Z,101134.73
2018-09-19T02:11:45.562Z,101129.50
2018-09-19T02:11:57.336Z,101125.58
2018-09-19T02:12:09.078Z,101127.41
2018-09-19T02:12:20.827Z,101133.03
2018-09-19T02:12:32.571Z,101132.25
2018-09-19T02:12:44.339Z,101136.95
2018-09-19T02:12:56.127Z,101134.34
2018-09-19T02:13:07.890Z,101130.42
2018-09-19T02:13:19.666Z,101136.56
2018-09-19T02:13:31.419Z,101135.64
2018-09-19T02:13:43.183Z,101133.95
2018-09-19T02:13:54.944Z,101133.03
2018-09-19T02:14:06.701Z,101135.26
2018-09-19T02:14:18.448Z,101139.18
2018-09-19T02:14:30.226Z,101127.41